עמוד ראשי
METAR-TAF:

METAR-TAF

שדות תעופה :

Fort Liard, הטריטוריות הצפון-מערביות, קנדה

קו רוחב: 60-14N, קו אורך: 123-29W, גובה: 215מטר

תצפית מזג אוויר נוכחית

הדו"ח נערך לפני 20דקות, בשעה 21:00 UTC
רוח 9קשר מכיוון צפון-מזרח עם משבים עד 17קשר , משתנה בין צפון ו מזרח
טמפרטורת 20 צלסיוס
לחות 32%
לחץ 1012 hPa
ראות: 24.1קילומטר
מעט עננים בגובה 9500רגל
מעט עננים בגובה 15000רגל
עננים פזורים בגובה 22000רגל

METAR: CYJF 172100Z 04009G17KT 010V080 15SM FEW095 FEW150 SCT220 20/03 A2988 RMK CU1AC1CI1 CU TR SLP125 DENSITY ALT 1500FT

זמן: 15:20 (21:20 UTC)


TAF: חסר

תצפיות ותחזיות מזג אוויר לגבי יותר מ- 4,000 שדות תעופה ברחבי העולם. דוחות METAR ו- TAF.

התחנות הזמינות מסומנות בנקודות צהובות ואדומות על גבי המפה.

העבר את העכבר לנקודה הצבעונית על מנת לראות את שם התחנה.

לאחר מכן, לחץ כדי לראות את תוכן ואת תחזיות מזג האוויר.

כדי לשנות את המפה: לחץ על הכפתורים הירוקים עם הפלוס השחור כדי להתקרב; על הכפתור הירוק עם המקף כדי להתרחק; או בחיצים הירוקים למפות סמוכות.


METAR-TAF: